Main page
METAR-TAF:

METAR-TAF

Airports :

Mykonos International Airport

Mykonos, Greece

latitude: 37-26-09N, longitude: 025-20-45E, elevation: 123 m

Current weather observation

The report was made 4 hours and 9 minutes ago, at 09:50 UTC
Wind 5 kt from the West/Northwest
Temperature 15°C
Humidity 63%
Pressure 1013 hPa
Visibility 10 km or more
Scattered clouds at a height of 1600 ft

METAR: LGMK 280950Z 29005KT 9999 SCT016 15/08 Q1013

Time: 15:59 (13:59 UTC)

Forecast

The report was made 2 hours and 59 minutes ago, at 11:00 UTC
Forecast valid from 28 at 12 UTC to 28 at 21 UTC
Wind 10 kt from the Northwest
Visibility 10 km or more
Scattered clouds at a height of 1500 ft

TAF: LGMK 281100Z 2812/2821 32010KT 9999 SCT015

Weather observations and forecasts of more than 4000 airports (METAR and TAF reports).

The available stations are represented by yellow and red dots on the map.

Hover mouse over dot to see the name of the station.

Then click to see weather observations and forecasts.

To change the map : click on the green buttons with a black cross to zoom in, on the green button with a dash to zoom out, or on the green arrows for adjacent maps.


METAR-TAF: